Time;durP1;ratioP1;P1;durP2;ratioP2;P2;SDS_P1;SDS_P2;PMS_P1;PMS_P2;Temp;Humidity;BMP_temperature;BMP_pressure;BME280_temperature;BME280_humidity;BME280_pressure;Samples;Min_cycle;Max_cycle;Signal;HPM_P1;HPM_P2
2023/06/01 00:02:25;;;;;;;13.93;6.97;;;;;;;14.00;75.72;102094.69;4949540;29;20081;-43
2023/06/01 00:04:55;;;;;;;11.85;7.03;;;;;;;13.95;76.04;102100.47;4951355;29;20066;-46
2023/06/01 00:07:23;;;;;;;12.85;6.25;;;;;;;13.89;76.23;102087.91;4950389;29;20043;-44
2023/06/01 00:09:50;;;;;;;12.93;6.38;;;;;;;13.90;76.33;102091.47;4950802;29;20071;-43
2023/06/01 00:12:17;;;;;;;10.60;7.47;;;;;;;13.89;76.49;102085.13;4933133;29;20363;-43
2023/06/01 00:14:44;;;;;;;13.80;6.40;;;;;;;13.87;76.41;102092.16;4949748;28;20478;-43
2023/06/01 00:17:11;;;;;;;10.93;6.80;;;;;;;13.87;76.60;102089.38;4939603;29;20047;-43
2023/06/01 00:19:40;;;;;;;9.43;6.05;;;;;;;13.85;76.83;102084.13;4950870;29;20047;-44
2023/06/01 00:22:07;;;;;;;14.80;7.05;;;;;;;13.83;77.00;102092.00;4949830;29;20047;-43
2023/06/01 00:24:34;;;;;;;10.35;7.00;;;;;;;13.81;77.00;102099.91;4949207;29;20053;-45
2023/06/01 00:27:01;;;;;;;12.55;7.20;;;;;;;13.81;77.34;102097.09;4950673;29;20114;-44
2023/06/01 00:29:29;;;;;;;12.23;7.70;;;;;;;13.83;77.55;102094.78;4949988;29;20086;-48
2023/06/01 00:31:56;;;;;;;15.95;7.05;;;;;;;13.84;77.50;102090.88;4949971;29;20035;-44
2023/06/01 00:34:24;;;;;;;11.50;6.65;;;;;;;13.85;77.43;102092.50;4950504;29;20059;-43
2023/06/01 00:36:51;;;;;;;13.48;7.00;;;;;;;13.85;77.82;102089.72;4950532;29;20557;-50
2023/06/01 00:39:17;;;;;;;12.18;6.35;;;;;;;13.84;77.76;102090.88;4950645;29;20061;-47
2023/06/01 00:41:44;;;;;;;15.68;8.13;;;;;;;13.86;78.04;102094.13;4947995;29;20075;-44
2023/06/01 00:44:11;;;;;;;13.77;8.02;;;;;;;13.86;78.01;102091.34;4947290;29;20520;-44
2023/06/01 00:46:40;;;;;;;14.98;6.60;;;;;;;13.84;78.30;102090.88;4950814;29;20247;-43
2023/06/01 00:49:07;;;;;;;10.95;7.63;;;;;;;13.83;78.42;102086.44;4950195;29;20039;-44
2023/06/01 00:51:35;;;;;;;12.18;7.40;;;;;;;13.85;78.64;102091.66;4949601;28;20055;-44
2023/06/01 00:54:02;;;;;;;14.88;8.25;;;;;;;13.85;78.61;102080.53;4950465;29;20562;-44
2023/06/01 00:56:31;;;;;;;12.55;8.10;;;;;;;13.83;78.85;102086.44;4950455;29;20451;-43
2023/06/01 00:58:59;;;;;;;18.17;8.98;;;;;;;13.78;78.95;102080.25;4949473;28;20051;-45
2023/06/01 01:01:26;;;;;;;19.75;8.57;;;;;;;13.75;79.12;102087.31;4952448;29;20505;-44
2023/06/01 01:04:00;;;;;;;10.30;6.85;;;;;;;13.76;79.08;102083.38;4953429;29;20051;-43
2023/06/01 01:06:56;;;;;;;12.85;6.95;;;;;;;13.73;79.34;102086.00;4954103;29;20055;-44
2023/06/01 01:09:44;;;;;;;15.88;7.47;;;;;;;13.73;79.38;102078.47;4953707;29;20086;-44
2023/06/01 01:12:37;;;;;;;12.55;7.55;;;;;;;13.69;79.70;102090.59;4953016;29;20047;-44
2023/06/01 01:15:19;;;;;;;10.52;5.60;;;;;;;13.67;79.51;102082.59;4918045;29;20070;-43
2023/06/01 01:17:51;;;;;;;10.27;6.22;;;;;;;13.65;79.68;102075.72;4950443;29;20043;-44
2023/06/01 01:20:23;;;;;;;11.52;7.13;;;;;;;13.65;79.61;102076.53;4941424;29;20494;-44
2023/06/01 01:23:09;;;;;;;13.63;7.53;;;;;;;13.62;79.89;102071.63;4951980;29;20130;-43
2023/06/01 01:25:39;;;;;;;13.95;6.60;;;;;;;13.60;79.71;102067.56;4953867;29;20465;-44
2023/06/01 01:28:27;;;;;;;11.70;6.70;;;;;;;13.55;79.77;102068.56;4952154;28;20047;-44
2023/06/01 01:30:56;;;;;;;12.88;7.00;;;;;;;13.52;79.84;102072.00;4953458;29;20047;-43
2023/06/01 01:33:26;;;;;;;13.27;6.65;;;;;;;13.50;79.83;102079.88;4943442;29;20520;-44
2023/06/01 01:35:53;;;;;;;10.95;6.00;;;;;;;13.50;79.98;102073.50;4953412;29;20050;-44
2023/06/01 01:38:20;;;;;;;9.23;6.88;;;;;;;13.49;80.03;102071.84;4953636;29;20055;-44
2023/06/01 01:40:49;;;;;;;13.15;6.95;;;;;;;13.46;79.92;102061.38;4953281;29;20058;-44
2023/06/01 01:43:16;;;;;;;10.48;6.55;;;;;;;13.42;79.99;102058.47;4952573;29;20057;-44
2023/06/01 01:45:53;;;;;;;14.52;7.38;;;;;;;13.40;79.99;102055.19;4953306;29;20055;-43
2023/06/01 01:48:28;;;;;;;14.52;7.22;;;;;;;13.37;79.93;102053.06;4952635;29;20482;-45
2023/06/01 01:51:07;;;;;;;9.55;5.93;;;;;;;13.32;80.23;102047.69;4951696;29;20071;-43
2023/06/01 01:53:36;;;;;;;16.20;8.02;;;;;;;13.29;80.09;102035.25;4952355;28;20062;-44
2023/06/01 01:56:07;;;;;;;10.07;6.70;;;;;;;13.24;80.18;102043.78;4953053;29;20078;-44
2023/06/01 01:58:35;;;;;;;10.00;7.00;;;;;;;13.23;80.38;102039.38;4952865;29;20569;-44
2023/06/01 02:01:03;;;;;;;9.63;6.97;;;;;;;13.21;80.41;102040.88;4952936;29;20086;-44
2023/06/01 02:03:30;;;;;;;10.63;6.78;;;;;;;13.17;80.42;102034.31;4951979;29;20528;-43
2023/06/01 02:05:57;;;;;;;11.73;7.00;;;;;;;13.18;80.41;102028.44;4952093;29;20047;-51
2023/06/01 02:08:24;;;;;;;10.27;6.65;;;;;;;13.17;80.53;102035.13;4952374;29;20114;-44
2023/06/01 02:10:51;;;;;;;13.93;7.00;;;;;;;13.12;80.34;102028.94;4950853;28;20409;-45
2023/06/01 02:13:18;;;;;;;11.70;6.50;;;;;;;13.12;80.39;102029.75;4951564;29;20055;-44
2023/06/01 02:15:45;;;;;;;14.30;7.60;;;;;;;13.09;80.56;102030.41;4950628;29;20812;-44
2023/06/01 02:18:12;;;;;;;14.65;6.85;;;;;;;13.08;80.71;102027.97;4948098;29;20564;-46
2023/06/01 02:20:39;;;;;;;15.63;8.13;;;;;;;13.05;80.50;102023.03;4949799;29;20043;-44
2023/06/01 02:23:06;;;;;;;15.80;6.90;;;;;;;13.03;80.73;102025.31;4944573;29;20103;-45
2023/06/01 02:25:32;;;;;;;11.55;6.20;;;;;;;12.99;80.77;102029.91;4948811;28;20083;-44
2023/06/01 02:27:59;;;;;;;12.13;7.43;;;;;;;12.96;80.74;102030.56;4965118;28;20043;-45
2023/06/01 02:30:26;;;;;;;13.13;7.35;;;;;;;12.93;80.94;102022.88;4956141;28;20509;-43
2023/06/01 02:32:53;;;;;;;14.85;6.90;;;;;;;12.93;80.85;102022.88;4953435;28;20126;-43
2023/06/01 02:35:20;;;;;;;16.10;7.80;;;;;;;12.89;80.86;102021.94;4952606;29;20047;-44
2023/06/01 02:37:47;;;;;;;14.15;7.07;;;;;;;12.85;81.02;102018.97;4952615;29;20122;-43
2023/06/01 02:40:16;;;;;;;10.02;6.93;;;;;;;12.83;81.06;102016.56;4951620;29;20051;-45
2023/06/01 02:42:44;;;;;;;15.52;8.18;;;;;;;12.81;80.96;102007.69;4950649;29;20138;-43
2023/06/01 02:45:11;;;;;;;13.50;7.15;;;;;;;12.78;81.09;102013.94;4952374;29;20501;-44
2023/06/01 02:47:38;;;;;;;13.05;6.60;;;;;;;12.76;81.08;102024.53;4951143;29;20051;-44
2023/06/01 02:50:06;;;;;;;15.93;8.18;;;;;;;12.73;81.17;102011.31;4952340;29;20055;-44
2023/06/01 02:52:33;;;;;;;15.25;7.57;;;;;;;12.70;81.23;102016.72;4951069;28;20054;-44
2023/06/01 02:54:59;;;;;;;16.35;7.20;;;;;;;12.68;81.25;102014.25;4952088;29;20053;-43
2023/06/01 02:57:26;;;;;;;14.68;7.88;;;;;;;12.69;81.19;102015.91;4951137;29;20047;-44
2023/06/01 02:59:53;;;;;;;14.23;8.02;;;;;;;12.68;81.26;102014.25;4951901;29;20059;-44
2023/06/01 03:02:20;;;;;;;14.98;7.90;;;;;;;12.67;81.37;102009.03;4988455;23;20055;-46
2023/06/01 03:04:48;;;;;;;16.70;8.60;;;;;;;12.64;81.45;102010.53;4956944;28;20051;-45
2023/06/01 03:07:16;;;;;;;8.50;6.47;;;;;;;12.64;81.41;102007.75;4956445;28;20043;-46
2023/06/01 03:09:43;;;;;;;13.48;7.93;;;;;;;12.61;81.47;102007.56;4940526;29;20455;-44
2023/06/01 03:12:11;;;;;;;13.63;7.57;;;;;;;12.59;81.62;102005.13;4948850;29;20387;-45
2023/06/01 03:14:38;;;;;;;11.32;6.47;;;;;;;12.58;81.44;102005.44;4949061;29;20043;-44
2023/06/01 03:17:06;;;;;;;14.93;7.28;;;;;;;12.59;81.44;102007.09;4946564;28;20130;-43
2023/06/01 03:19:32;;;;;;;13.13;7.10;;;;;;;12.57;81.67;102010.22;4948278;28;20157;-44
2023/06/01 03:21:59;;;;;;;13.02;7.55;;;;;;;12.54;81.54;102010.03;4947565;28;20073;-44
2023/06/01 03:24:27;;;;;;;15.48;8.35;;;;;;;12.55;81.51;102015.25;4948809;28;20046;-44
2023/06/01 03:26:55;;;;;;;16.00;7.75;;;;;;;12.54;81.36;102013.63;4945041;28;20051;-44
2023/06/01 03:29:21;;;;;;;14.45;7.40;;;;;;;12.51;81.56;102014.28;4945650;28;20130;-44
2023/06/01 03:31:49;;;;;;;17.13;7.88;;;;;;;12.50;81.66;102011.81;4944534;28;20059;-44
2023/06/01 03:34:16;;;;;;;19.83;6.85;;;;;;;12.50;81.73;102018.19;4949595;28;20043;-44
2023/06/01 03:36:47;;;;;;;15.60;7.78;;;;;;;12.51;81.71;102014.28;4949212;28;20075;-46
2023/06/01 03:39:15;;;;;;;15.52;9.60;;;;;;;12.49;81.61;102013.81;4947968;28;20589;-44
2023/06/01 03:41:43;;;;;;;15.52;7.78;;;;;;;12.48;81.60;102012.16;4947335;28;20051;-44
2023/06/01 03:44:11;;;;;;;17.15;8.95;;;;;;;12.46;81.89;102013.63;4945183;28;20130;-44
2023/06/01 03:46:39;;;;;;;18.35;8.15;;;;;;;12.47;81.74;102006.94;4949436;28;20047;-43
2023/06/01 03:49:06;;;;;;;13.68;8.13;;;;;;;12.50;81.72;102007.09;4950327;28;20039;-44
2023/06/01 03:51:33;;;;;;;13.18;7.82;;;;;;;12.51;81.89;102002.34;4949600;28;20043;-44
2023/06/01 03:54:00;;;;;;;14.85;7.97;;;;;;;12.53;81.80;102012.00;4946704;28;20047;-45
2023/06/01 03:56:27;;;;;;;15.45;9.30;;;;;;;12.51;81.94;102005.13;4947325;28;20035;-44
2023/06/01 03:58:54;;;;;;;15.40;8.20;;;;;;;12.50;82.09;102001.53;4946142;28;20752;-44
2023/06/01 04:01:22;;;;;;;16.40;8.43;;;;;;;12.51;82.11;102003.19;4948412;28;20051;-44
2023/06/01 04:03:50;;;;;;;15.25;8.63;;;;;;;12.48;82.34;102003.81;4948559;28;20049;-44
2023/06/01 04:06:17;;;;;;;14.18;8.60;;;;;;;12.47;82.33;101995.84;4945311;28;20047;-43
2023/06/01 04:08:49;;;;;;;16.67;9.13;;;;;;;12.47;82.54;101996.63;4945804;28;20055;-44
2023/06/01 04:11:16;;;;;;;21.75;9.90;;;;;;;12.50;82.53;102001.53;4932452;29;20497;-43
2023/06/01 04:13:43;;;;;;;27.90;12.73;;;;;;;12.51;82.70;101992.06;4948381;28;20115;-44
2023/06/01 04:16:10;;;;;;;16.95;10.35;;;;;;;12.56;82.98;102000.22;4947518;28;20465;-44
2023/06/01 04:18:37;;;;;;;19.77;10.15;;;;;;;12.57;83.14;102009.38;4944349;28;20094;-44
2023/06/01 04:21:05;;;;;;;47.22;12.57;;;;;;;12.57;83.12;102010.22;4948614;28;20490;-44
2023/06/01 04:23:33;;;;;;;16.23;9.27;;;;;;;12.56;83.54;101994.69;4923496;28;20090;-43
2023/06/01 04:26:00;;;;;;;21.50;11.88;;;;;;;12.58;83.73;101994.34;4944784;28;20098;-44
2023/06/01 04:28:29;;;;;;;21.60;11.27;;;;;;;12.60;83.74;101995.63;4951070;28;20050;-43
2023/06/01 04:30:56;;;;;;;25.45;11.65;;;;;;;12.61;83.95;101997.28;4950836;29;20065;-43
2023/06/01 04:33:24;;;;;;;25.45;12.32;;;;;;;12.61;84.08;101997.28;4948612;28;20046;-44
2023/06/01 04:35:54;;;;;;;22.92;11.80;;;;;;;12.62;84.28;102004.47;4952127;28;20043;-46
2023/06/01 04:38:24;;;;;;;19.25;11.20;;;;;;;12.61;84.14;102011.16;4954565;29;20074;-43
2023/06/01 04:40:55;;;;;;;23.23;13.18;;;;;;;12.61;84.41;102013.94;4950656;29;20055;-44
2023/06/01 04:43:23;;;;;;;20.65;10.10;;;;;;;12.62;84.37;102010.03;4935593;29;20565;-44
2023/06/01 04:45:51;;;;;;;24.98;11.65;;;;;;;12.62;84.52;102010.03;4954465;28;20058;-45
2023/06/01 04:48:18;;;;;;;22.45;11.60;;;;;;;12.65;84.52;102022.47;4954627;29;20039;-44
2023/06/01 04:50:44;;;;;;;24.50;12.15;;;;;;;12.66;84.66;102022.13;4954417;29;20082;-45
2023/06/01 04:53:12;;;;;;;42.28;14.20;;;;;;;12.66;84.65;102019.34;4953250;28;20044;-43
2023/06/01 04:55:38;;;;;;;20.63;12.45;;;;;;;12.66;84.60;102012.97;4949167;28;20052;-44
2023/06/01 04:58:06;;;;;;;19.48;13.00;;;;;;;12.66;84.66;102008.22;4949933;28;20047;-47
2023/06/01 05:00:34;;;;;;;23.63;12.23;;;;;;;12.67;84.81;102011.81;4950435;28;20059;-44
2023/06/01 05:03:02;;;;;;;20.92;12.82;;;;;;;12.68;84.83;102008.69;4951171;28;20058;-44
2023/06/01 05:05:30;;;;;;;18.23;11.98;;;;;;;12.66;84.68;102021.28;4952738;28;20055;-47
2023/06/01 05:07:57;;;;;;;19.35;12.30;;;;;;;12.65;84.69;102016.91;4950927;28;20576;-43
2023/06/01 05:10:24;;;;;;;18.08;11.23;;;;;;;12.66;84.99;102011.00;4936438;28;20039;-45
2023/06/01 05:12:51;;;;;;;19.65;12.57;;;;;;;12.68;85.08;102017.03;4946300;28;20100;-44
2023/06/01 05:15:18;;;;;;;21.80;13.77;;;;;;;12.68;85.04;102016.25;4950549;28;20043;-45
2023/06/01 05:17:45;;;;;;;19.25;11.18;;;;;;;12.70;85.07;102014.78;4950676;28;20055;-45
2023/06/01 05:20:15;;;;;;;23.83;13.45;;;;;;;12.76;85.07;102016.22;4946809;28;20078;-43
2023/06/01 05:22:42;;;;;;;20.73;13.25;;;;;;;12.77;84.90;102017.84;4952195;28;20063;-43
2023/06/01 05:25:10;;;;;;;25.10;14.70;;;;;;;12.78;84.95;102018.69;4953450;28;20047;-45
2023/06/01 05:27:43;;;;;;;22.58;14.65;;;;;;;12.80;84.94;102011.66;4948958;28;20067;-43
2023/06/01 05:30:10;;;;;;;22.52;13.25;;;;;;;12.84;85.08;102018.16;4930547;28;20084;-44
2023/06/01 05:32:37;;;;;;;23.55;13.77;;;;;;;12.88;84.97;102023.88;4946319;28;20055;-46
2023/06/01 05:35:04;;;;;;;21.38;14.52;;;;;;;12.92;85.08;102024.06;4950476;28;20450;-45
2023/06/01 05:37:31;;;;;;;24.33;15.10;;;;;;;12.94;84.95;102022.59;4950446;28;20043;-44
2023/06/01 05:39:58;;;;;;;22.92;14.30;;;;;;;12.96;85.07;102025.00;4952122;28;20058;-45
2023/06/01 05:42:25;;;;;;;21.33;14.00;;;;;;;12.97;85.15;102015.53;4950773;28;20111;-44
2023/06/01 05:44:52;;;;;;;24.77;13.95;;;;;;;12.99;85.38;102018.81;4948775;28;20051;-44
2023/06/01 05:47:18;;;;;;;22.60;13.05;;;;;;;13.01;85.54;102017.31;4947313;28;20091;-46
2023/06/01 05:49:46;;;;;;;22.65;13.27;;;;;;;13.04;85.41;102015.84;4959367;28;20062;-44
2023/06/01 05:52:13;;;;;;;21.35;13.77;;;;;;;13.07;85.38;102020.78;4956866;28;20051;-44
2023/06/01 05:54:40;;;;;;;38.78;14.73;;;;;;;13.12;85.15;102028.94;4958678;28;20114;-44
2023/06/01 05:57:07;;;;;;;21.05;13.07;;;;;;;13.19;85.10;102024.50;4952924;29;20485;-44
2023/06/01 05:59:34;;;;;;;20.00;12.73;;;;;;;13.25;85.19;102036.25;4953182;29;20059;-44
2023/06/01 06:02:03;;;;;;;17.98;12.73;;;;;;;13.27;84.88;102033.94;4932416;29;20656;-45
2023/06/01 06:04:30;;;;;;;20.58;12.57;;;;;;;13.27;84.83;102036.72;4951559;28;20463;-44
2023/06/01 06:06:58;;;;;;;22.08;12.55;;;;;;;13.28;84.81;102041.16;4952991;28;20515;-43
2023/06/01 06:09:25;;;;;;;21.40;13.48;;;;;;;13.29;84.94;102042.81;4952791;28;20090;-46
2023/06/01 06:11:52;;;;;;;22.23;13.63;;;;;;;13.33;84.62;102033.47;4935951;29;20097;-45
2023/06/01 06:14:19;;;;;;;23.85;12.85;;;;;;;13.36;84.66;102034.75;4953212;29;20062;-44
2023/06/01 06:16:46;;;;;;;20.50;12.50;;;;;;;13.39;84.39;102039.66;4952284;29;20102;-44
2023/06/01 06:19:15;;;;;;;22.75;12.52;;;;;;;13.42;84.40;102039.00;4947155;28;20062;-44
2023/06/01 06:21:42;;;;;;;23.08;12.32;;;;;;;13.43;84.35;102047.00;4943724;28;20087;-43
2023/06/01 06:24:09;;;;;;;18.00;13.27;;;;;;;13.45;84.20;102043.88;4947841;28;20048;-43
2023/06/01 06:26:36;;;;;;;24.50;13.20;;;;;;;13.52;84.22;102057.28;4942378;28;20486;-44
2023/06/01 06:29:03;;;;;;;18.42;11.00;;;;;;;13.61;84.23;102060.84;4951049;28;20047;-44
2023/06/01 06:31:30;;;;;;;24.02;14.32;;;;;;;13.69;83.96;102052.44;4944371;28;20035;-44
2023/06/01 06:33:59;;;;;;;20.52;12.00;;;;;;;13.72;83.82;102037.88;4950350;29;20571;-45
2023/06/01 06:36:26;;;;;;;19.58;12.43;;;;;;;13.74;83.77;102043.91;4952543;28;20048;-45
2023/06/01 06:38:53;;;;;;;28.52;13.07;;;;;;;13.76;83.61;102043.59;4958131;28;20056;-49
2023/06/01 06:41:20;;;;;;;18.90;12.60;;;;;;;13.80;83.69;102036.19;4952126;29;20126;-45
2023/06/01 06:43:47;;;;;;;21.80;13.73;;;;;;;13.84;83.42;102051.91;4951107;28;20106;-48
2023/06/01 06:46:14;;;;;;;22.88;13.00;;;;;;;13.90;83.46;102050.53;4938699;29;20138;-44
2023/06/01 06:48:41;;;;;;;18.27;12.20;;;;;;;13.95;83.42;102041.19;4952735;28;20055;-45
2023/06/01 06:51:08;;;;;;;19.85;12.32;;;;;;;14.06;83.28;102052.75;4952497;29;20043;-44
2023/06/01 06:53:35;;;;;;;21.35;12.18;;;;;;;14.20;83.21;102053.31;4951743;29;20528;-44
2023/06/01 06:56:02;;;;;;;19.38;12.63;;;;;;;14.28;83.01;102056.03;4949809;29;20083;-45
2023/06/01 06:58:29;;;;;;;16.90;10.93;;;;;;;14.32;83.13;102056.22;4951676;28;20452;-44
2023/06/01 07:00:56;;;;;;;20.88;11.85;;;;;;;14.40;83.08;102052.56;4951770;29;20047;-44
2023/06/01 07:03:23;;;;;;;16.70;10.90;;;;;;;14.42;82.82;102050.25;4951328;29;20047;-45
2023/06/01 07:05:50;;;;;;;23.00;13.30;;;;;;;14.52;83.15;102060.97;4951465;29;20378;-45
2023/06/01 07:08:17;;;;;;;20.63;11.13;;;;;;;14.64;82.92;102064.63;4951559;28;20089;-50
2023/06/01 07:10:44;;;;;;;20.80;11.85;;;;;;;14.78;82.91;102063.53;4951991;28;20115;-46
2023/06/01 07:13:11;;;;;;;15.50;10.77;;;;;;;14.86;82.89;102063.47;4924477;28;20043;-45
2023/06/01 07:15:38;;;;;;;18.92;11.57;;;;;;;14.96;82.78;102059.44;4951816;28;20050;-51
2023/06/01 07:18:05;;;;;;;16.52;9.50;;;;;;;15.01;82.59;102057.25;4949590;28;20561;-43
2023/06/01 07:20:32;;;;;;;17.58;10.25;;;;;;;15.04;82.41;102062.13;4947221;28;20130;-46
2023/06/01 07:22:59;;;;;;;18.92;10.30;;;;;;;15.10;82.71;102054.38;4954011;28;20041;-45
2023/06/01 07:25:26;;;;;;;15.77;9.57;;;;;;;15.21;83.30;102052.78;4951533;29;20046;-42
2023/06/01 07:27:56;;;;;;;16.52;8.77;;;;;;;15.38;84.01;102054.56;4954821;28;20122;-43
2023/06/01 07:30:26;;;;;;;15.88;9.48;;;;;;;15.55;84.18;102055.19;4942832;28;20074;-43
2023/06/01 07:32:52;;;;;;;13.68;9.32;;;;;;;15.61;83.76;102061.38;4950472;29;20477;-43
2023/06/01 07:35:20;;;;;;;23.13;12.18;;;;;;;15.72;83.45;102059.75;4950416;28;20043;-43
2023/06/01 07:37:46;;;;;;;15.93;9.73;;;;;;;15.74;82.74;102057.44;4950984;29;20511;-43
2023/06/01 07:40:13;;;;;;;16.63;9.55;;;;;;;15.70;81.64;102068.47;4948816;29;20043;-43
2023/06/01 07:42:40;;;;;;;16.25;10.48;;;;;;;15.77;81.24;102065.13;4949538;29;20051;-43
2023/06/01 07:45:09;;;;;;;13.98;9.85;;;;;;;15.91;81.63;102057.22;4951465;29;20054;-44
2023/06/01 07:47:36;;;;;;;15.68;9.45;;;;;;;16.07;79.91;102063.69;4950597;28;20057;-44
2023/06/01 07:50:03;;;;;;;12.88;9.73;;;;;;;16.08;79.98;102056.94;4951455;29;20138;-44
2023/06/01 07:52:31;;;;;;;22.73;9.57;;;;;;;16.53;80.17;102062.38;4951367;29;20039;-44
2023/06/01 07:54:57;;;;;;;14.18;8.70;;;;;;;16.72;78.24;102062.56;4951545;29;20047;-43
2023/06/01 07:57:25;;;;;;;14.85;9.20;;;;;;;16.72;77.06;102064.53;4949187;29;20042;-43
2023/06/01 07:59:52;;;;;;;14.38;7.82;;;;;;;16.82;75.85;102073.22;4951562;29;20055;-43
2023/06/01 08:02:20;;;;;;;11.98;7.80;;;;;;;16.69;74.78;102065.22;4950814;29;20059;-44
2023/06/01 08:04:47;;;;;;;13.63;6.47;;;;;;;17.03;74.15;102075.81;4951019;29;20044;-43
2023/06/01 08:07:16;;;;;;;16.50;7.25;;;;;;;17.33;72.79;102068.69;4950961;29;20130;-46
2023/06/01 08:09:43;;;;;;;11.38;7.25;;;;;;;18.00;72.22;102076.00;4955466;28;20103;-47
2023/06/01 08:12:11;;;;;;;12.52;6.95;;;;;;;18.73;70.90;102078.94;4956308;29;20043;-45
2023/06/01 08:14:38;;;;;;;28.80;8.07;;;;;;;19.38;69.39;102074.25;4957370;29;20074;-44
2023/06/01 08:17:06;;;;;;;13.70;6.97;;;;;;;19.75;68.05;102080.13;4957667;28;20402;-44
2023/06/01 08:19:35;;;;;;;11.93;6.57;;;;;;;20.02;66.83;102073.34;4956636;29;20155;-44
2023/06/01 08:22:04;;;;;;;12.38;6.55;;;;;;;19.96;64.74;102072.03;4957696;29;20477;-45
2023/06/01 08:24:34;;;;;;;14.27;7.00;;;;;;;20.16;64.54;102077.59;4957499;28;20397;-44
2023/06/01 08:27:01;;;;;;;10.45;5.82;;;;;;;20.46;62.47;102086.91;4956695;28;20043;-44
2023/06/01 08:29:27;;;;;;;14.85;6.00;;;;;;;20.23;62.03;102080.50;4956603;28;20082;-44
2023/06/01 08:32:09;;;;;;;8.40;5.93;;;;;;;20.11;60.72;102083.53;4957437;28;20051;-44
2023/06/01 08:34:36;;;;;;;10.75;5.35;;;;;;;19.74;60.73;102089.75;4957574;28;20043;-44
2023/06/01 08:37:03;;;;;;;11.93;5.57;;;;;;;19.60;60.21;102085.88;4956605;28;20106;-49
2023/06/01 08:39:30;;;;;;;13.55;6.20;;;;;;;19.70;60.55;102094.50;4957110;29;20047;-46
2023/06/01 08:42:07;;;;;;;9.82;5.88;;;;;;;19.92;60.39;102088.06;4957443;28;20079;-44
2023/06/01 08:44:40;;;;;;;15.93;6.05;;;;;;;20.60;58.93;102095.53;4956663;28;20055;-44
2023/06/01 08:47:08;;;;;;;11.38;6.47;;;;;;;20.55;58.21;102093.88;4956538;28;20054;-44
2023/06/01 08:49:36;;;;;;;10.18;6.63;;;;;;;20.17;57.99;102085.66;4957164;29;20562;-44
2023/06/01 08:52:08;;;;;;;9.00;5.53;;;;;;;20.07;57.49;102085.50;4956844;28;20047;-44
2023/06/01 08:54:35;;;;;;;;;;;;;;;19.77;57.99;102083.41;4956783;28;20489;-44
2023/06/01 08:57:06;;;;;;;9.80;5.45;;;;;;;19.64;57.93;102093.19;4957443;28;19978;-44
2023/06/01 08:59:36;;;;;;;10.35;6.28;;;;;;;19.21;57.89;102090.75;4956891;28;20525;-44
2023/06/01 09:02:03;;;;;;;17.35;5.93;;;;;;;19.13;57.84;102083.34;4939196;29;20107;-47
2023/06/01 09:04:34;;;;;;;11.02;5.93;;;;;;;18.77;58.28;102085.44;4957058;28;20035;-44
2023/06/01 09:07:02;;;;;;;16.00;8.32;;;;;;;18.69;58.61;102072.44;4956185;28;20035;-44
2023/06/01 09:09:29;;;;;;;19.67;8.15;;;;;;;18.68;58.44;102079.25;4956436;29;20054;-44
2023/06/01 09:12:18;;;;;;;9.27;6.15;;;;;;;19.12;58.48;102088.16;4955726;29;20051;-44
2023/06/01 09:14:45;;;;;;;8.85;5.93;;;;;;;18.84;58.50;102082.78;4956718;28;20047;-49
2023/06/01 09:17:15;;;;;;;12.55;7.07;;;;;;;18.61;58.57;102084.69;4956862;29;20126;-43
2023/06/01 09:19:44;;;;;;;10.60;6.75;;;;;;;18.39;59.47;102087.34;4956547;28;20054;-46
2023/06/01 09:22:14;;;;;;;14.38;7.13;;;;;;;18.46;59.33;102082.72;4953376;29;20525;-45
2023/06/01 09:24:55;;;;;;;8.18;6.30;;;;;;;18.45;59.48;102089.53;4954066;29;20039;-38
2023/06/01 09:27:21;;;;;;;10.57;6.25;;;;;;;18.51;59.14;102085.25;4953505;29;20500;-40
2023/06/01 09:29:56;;;;;;;11.88;6.50;;;;;;;18.51;59.26;102087.25;4952965;29;20051;-44
2023/06/01 09:32:24;;;;;;;12.15;6.90;;;;;;;18.50;59.48;102077.22;4953464;29;20480;-52
2023/06/01 09:34:51;;;;;;;9.35;6.60;;;;;;;18.73;59.58;102078.94;4952565;28;20047;-44
2023/06/01 09:37:18;;;;;;;13.18;5.88;;;;;;;19.19;58.55;102073.47;4953059;29;20393;-44
2023/06/01 09:39:45;;;;;;;10.35;6.57;;;;;;;19.14;58.13;102079.38;4953392;29;20055;-47
2023/06/01 09:42:12;;;;;;;9.63;6.00;;;;;;;19.00;58.56;102079.09;4953495;29;20051;-45
2023/06/01 09:44:41;;;;;;;10.30;6.78;;;;;;;19.06;58.58;102077.63;4922946;29;20055;-46
2023/06/01 09:47:12;;;;;;;14.13;6.63;;;;;;;19.06;58.47;102084.00;4953252;28;20054;-49
2023/06/01 09:49:42;;;;;;;13.13;5.97;;;;;;;19.19;58.33;102079.91;4953327;29;20043;-45
2023/06/01 09:52:14;;;;;;;13.13;5.72;;;;;;;19.50;58.07;102064.84;4953419;29;20055;-44
2023/06/01 09:54:50;;;;;;;8.13;5.50;;;;;;;19.96;57.29;102066.44;4953405;29;20099;-44
2023/06/01 09:57:23;;;;;;;13.85;6.03;;;;;;;20.64;55.93;102071.09;4951533;28;20126;-44
2023/06/01 09:59:50;;;;;;;8.35;5.47;;;;;;;20.74;56.04;102078.03;4953413;29;20051;-44
2023/06/01 10:02:22;;;;;;;10.18;6.25;;;;;;;21.29;55.40;102081.97;4952078;29;20444;-44
2023/06/01 10:05:00;;;;;;;11.30;5.07;;;;;;;21.41;54.64;102078.88;4935839;29;20556;-44
2023/06/01 10:07:31;;;;;;;11.25;5.93;;;;;;;21.07;54.29;102076.09;4953079;28;20058;-49
2023/06/01 10:10:02;;;;;;;9.95;5.55;;;;;;;20.66;54.72;102074.31;4953048;28;20043;-44
2023/06/01 10:12:31;;;;;;;12.73;6.70;;;;;;;20.28;55.11;102083.81;4953098;29;20053;-44
2023/06/01 10:15:01;;;;;;;9.10;5.40;;;;;;;19.98;55.44;102075.31;4952872;29;20485;-44
2023/06/01 10:17:38;;;;;;;11.48;5.97;;;;;;;19.71;55.74;102087.69;4953031;28;20055;-49
2023/06/01 10:20:06;;;;;;;11.90;5.60;;;;;;;19.31;56.07;102079.72;4951738;29;20557;-45
2023/06/01 10:22:34;;;;;;;14.02;7.70;;;;;;;19.29;55.90;102075.66;4951427;28;20115;-44
2023/06/01 10:25:01;;;;;;;14.05;5.93;;;;;;;19.64;55.61;102084.78;4952775;29;20054;-43
2023/06/01 10:28:04;;;;;;;9.32;6.25;;;;;;;20.01;55.08;102080.16;4952796;29;20040;-44
2023/06/01 10:30:31;;;;;;;13.52;6.50;;;;;;;20.02;54.86;102080.97;4944475;29;20065;-44
2023/06/01 10:32:58;;;;;;;16.60;6.75;;;;;;;19.77;54.68;102089.00;4934045;29;20054;-43
2023/06/01 10:35:28;;;;;;;15.07;6.47;;;;;;;19.50;55.22;102092.94;4952207;29;20052;-43
2023/06/01 10:38:07;;;;;;;14.25;7.70;;;;;;;19.32;55.79;102094.56;4951235;29;20040;-46
2023/06/01 10:40:34;;;;;;;11.13;6.30;;;;;;;19.12;55.89;102092.94;4952539;29;20061;-43
2023/06/01 10:43:01;;;;;;;10.98;6.20;;;;;;;18.85;56.28;102095.63;4952594;29;20047;-44
2023/06/01 10:45:35;;;;;;;15.48;6.43;;;;;;;18.93;56.64;102090.97;4951817;28;20054;-45
2023/06/01 10:48:03;;;;;;;10.82;6.40;;;;;;;18.97;56.49;102086.25;4951239;28;20047;-43
2023/06/01 10:50:31;;;;;;;33.35;11.30;;;;;;;19.05;56.38;102076.78;4933638;29;20138;-43
2023/06/01 10:53:30;;;;;;;13.05;5.90;;;;;;;19.23;56.11;102088.38;4951165;29;20043;-45
2023/06/01 10:56:23;;;;;;;9.93;5.63;;;;;;;19.14;56.58;102079.38;4940175;29;20389;-48
2023/06/01 10:59:11;;;;;;;17.60;8.80;;;;;;;19.17;56.85;102089.84;4949607;29;20065;-44
2023/06/01 11:01:42;;;;;;;11.40;6.03;;;;;;;19.03;56.75;102081.16;4951731;29;20390;-44
2023/06/01 11:04:10;;;;;;;8.77;6.43;;;;;;;18.94;56.41;102083.38;4935321;29;20482;-44
2023/06/01 11:06:40;;;;;;;11.38;7.13;;;;;;;18.72;56.59;102080.13;4952278;29;20126;-43
2023/06/01 11:09:11;;;;;;;14.98;6.28;;;;;;;18.62;56.69;102075.09;4952208;29;20419;-44
2023/06/01 11:11:50;;;;;;;12.18;5.68;;;;;;;18.75;57.07;102085.00;4951227;29;20055;-44
2023/06/01 11:14:25;;;;;;;12.50;5.50;;;;;;;18.73;56.82;102086.53;4952163;28;20077;-43
2023/06/01 11:16:54;;;;;;;14.23;6.32;;;;;;;18.62;56.95;102088.28;4952111;29;20074;-51
2023/06/01 11:19:25;;;;;;;12.88;6.10;;;;;;;18.46;57.02;102091.13;4952149;29;20114;-44
2023/06/01 11:22:03;;;;;;;11.00;6.28;;;;;;;18.43;57.22;102082.63;4951721;29;20401;-44
2023/06/01 11:24:35;;;;;;;10.10;6.30;;;;;;;18.40;57.46;102081.38;4950762;29;20051;-44
2023/06/01 11:27:12;;;;;;;15.63;6.75;;;;;;;18.50;57.85;102083.66;4948065;29;20126;-44